createdAt,value
2018-04-30T00:01:51.718Z,6.07
2018-04-30T00:04:19.174Z,5.57
2018-04-30T00:06:46.696Z,5.80
2018-04-30T00:09:14.764Z,7.23
2018-04-30T00:11:42.215Z,5.43
2018-04-30T00:14:09.949Z,5.37
2018-04-30T00:16:37.433Z,6.10
2018-04-30T00:19:04.918Z,5.80
2018-04-30T00:21:32.778Z,5.13
2018-04-30T00:24:01.240Z,5.47
2018-04-30T00:26:29.106Z,5.13
2018-04-30T00:28:56.567Z,5.43
2018-04-30T00:31:25.705Z,4.77
2018-04-30T00:33:53.164Z,4.60
2018-04-30T00:36:20.699Z,3.50
2018-04-30T00:38:48.430Z,3.40
2018-04-30T00:41:16.121Z,3.37
2018-04-30T00:43:43.713Z,3.00
2018-04-30T00:46:12.792Z,2.87
2018-04-30T00:48:40.263Z,3.23
2018-04-30T00:51:07.810Z,3.10
2018-04-30T00:53:35.280Z,2.93
2018-04-30T00:56:02.855Z,2.90
2018-04-30T00:58:31.161Z,2.40
2018-04-30T01:00:59.041Z,2.37
2018-04-30T01:03:27.201Z,2.10
2018-04-30T01:05:54.861Z,1.80
2018-04-30T01:08:22.354Z,2.17
2018-04-30T01:10:49.990Z,2.00
2018-04-30T01:13:17.544Z,1.77
2018-04-30T01:15:46.039Z,2.20
2018-04-30T01:18:13.627Z,2.00
2018-04-30T01:20:44.105Z,2.00
2018-04-30T01:23:11.634Z,1.90
2018-04-30T01:25:39.172Z,1.37
2018-04-30T01:28:06.862Z,1.50
2018-04-30T01:30:34.523Z,1.10
2018-04-30T01:33:02.005Z,1.20
2018-04-30T01:35:29.615Z,1.13
2018-04-30T01:37:57.153Z,1.37
2018-04-30T01:40:24.764Z,1.20
2018-04-30T01:42:52.286Z,1.10
2018-04-30T01:45:19.758Z,1.10
2018-04-30T01:47:47.575Z,1.00
2018-04-30T01:50:17.120Z,1.00
2018-04-30T01:52:44.927Z,1.00
2018-04-30T01:55:13.482Z,1.00
2018-04-30T01:57:41.783Z,0.90
2018-04-30T02:00:09.486Z,1.00
2018-04-30T02:02:37.072Z,1.00
2018-04-30T02:05:04.618Z,1.50
2018-04-30T02:07:33.416Z,0.80
2018-04-30T02:10:01.146Z,1.17
2018-04-30T02:12:29.118Z,1.10
2018-04-30T02:14:56.808Z,1.10
2018-04-30T02:17:24.491Z,1.13
2018-04-30T02:19:52.561Z,1.20
2018-04-30T02:22:20.069Z,0.90
2018-04-30T02:24:49.195Z,0.90
2018-04-30T02:27:16.699Z,1.00
2018-04-30T02:29:44.190Z,1.30
2018-04-30T02:32:13.039Z,0.70
2018-04-30T02:34:41.460Z,1.00
2018-04-30T02:37:08.922Z,1.00
2018-04-30T02:39:36.726Z,0.80
2018-04-30T02:42:05.244Z,1.03
2018-04-30T02:44:33.289Z,0.97
2018-04-30T02:47:00.749Z,2.40
2018-04-30T02:49:28.575Z,0.90
2018-04-30T02:51:57.046Z,0.97
2018-04-30T02:54:24.517Z,0.93
2018-04-30T02:56:52.580Z,0.83
2018-04-30T02:59:20.111Z,1.10
2018-04-30T03:01:47.557Z,0.90
2018-04-30T03:04:15.433Z,0.87
2018-04-30T03:06:42.964Z,0.80
2018-04-30T03:09:10.530Z,0.90
2018-04-30T03:11:38.857Z,0.90
2018-04-30T03:14:06.356Z,1.00
2018-04-30T03:16:34.103Z,1.00
2018-04-30T03:19:01.825Z,0.80
2018-04-30T03:21:29.911Z,1.00
2018-04-30T03:23:59.307Z,0.90
2018-04-30T03:26:26.779Z,0.80
2018-04-30T03:28:55.543Z,1.00
2018-04-30T03:31:23.035Z,1.13
2018-04-30T03:33:50.777Z,1.40
2018-04-30T03:36:18.278Z,1.37
2018-04-30T03:38:45.886Z,1.17
2018-04-30T03:41:14.604Z,1.30
2018-04-30T03:43:42.146Z,1.00
2018-04-30T03:46:09.623Z,1.20
2018-04-30T03:48:37.101Z,1.20
2018-04-30T03:51:05.535Z,1.20
2018-04-30T03:53:33.163Z,1.20
2018-04-30T03:56:01.580Z,1.20
2018-04-30T03:58:30.111Z,1.30
2018-04-30T04:04:15.473Z,1.20
2018-04-30T04:06:51.975Z,1.30
2018-04-30T04:09:19.448Z,1.13
2018-04-30T04:11:47.460Z,1.20
2018-04-30T04:14:14.963Z,1.07
2018-04-30T04:16:42.475Z,1.00
2018-04-30T04:19:10.623Z,1.30
2018-04-30T04:21:38.250Z,1.40
2018-04-30T04:24:05.826Z,1.83
2018-04-30T04:26:34.448Z,1.00
2018-04-30T04:29:02.816Z,1.20
2018-04-30T04:31:30.413Z,1.20
2018-04-30T04:33:58.671Z,1.30
2018-04-30T04:36:26.873Z,1.20
2018-04-30T04:38:55.104Z,1.23
2018-04-30T04:41:22.739Z,1.33
2018-04-30T04:43:50.487Z,1.30
2018-04-30T04:46:17.989Z,1.40
2018-04-30T04:48:45.457Z,1.23
2018-04-30T04:51:12.892Z,1.20
2018-04-30T04:53:41.471Z,1.67
2018-04-30T04:56:10.656Z,1.43
2018-04-30T04:58:38.131Z,1.60
2018-04-30T05:01:05.943Z,1.10
2018-04-30T05:03:34.379Z,1.33
2018-04-30T05:06:03.246Z,1.20
2018-04-30T05:08:31.755Z,1.37
2018-04-30T05:11:00.212Z,1.13
2018-04-30T05:13:27.777Z,1.40
2018-04-30T05:15:55.527Z,1.43
2018-04-30T05:18:24.034Z,1.70
2018-04-30T05:20:51.610Z,1.27
2018-04-30T05:23:19.058Z,1.50
2018-04-30T05:25:46.702Z,1.60
2018-04-30T05:28:14.212Z,1.40
2018-04-30T05:30:41.700Z,1.40
2018-04-30T05:33:09.200Z,1.10
2018-04-30T05:35:36.687Z,1.50
2018-04-30T05:38:04.321Z,1.17
2018-04-30T05:40:32.065Z,1.40
2018-04-30T05:43:00.268Z,1.00
2018-04-30T05:45:27.780Z,1.10
2018-04-30T05:47:55.360Z,1.27
2018-04-30T05:50:24.769Z,1.30
2018-04-30T05:52:52.962Z,1.40
2018-04-30T05:55:20.440Z,1.20
2018-04-30T05:57:51.544Z,1.20
2018-04-30T06:00:19.035Z,1.50
2018-04-30T06:02:46.559Z,1.27
2018-04-30T06:05:14.473Z,1.23
2018-04-30T06:07:41.945Z,1.10
2018-04-30T06:10:10.091Z,1.30
2018-04-30T06:12:38.358Z,1.00
2018-04-30T06:15:06.724Z,1.00
2018-04-30T06:17:34.261Z,1.40
2018-04-30T06:20:02.042Z,1.10
2018-04-30T06:22:29.620Z,1.10
2018-04-30T06:24:57.806Z,1.10
2018-04-30T06:27:25.312Z,1.20
2018-04-30T06:29:52.868Z,0.97
2018-04-30T06:32:20.357Z,1.10
2018-04-30T06:34:48.141Z,0.90
2018-04-30T06:37:15.601Z,1.00
2018-04-30T06:39:43.106Z,1.10
2018-04-30T06:42:10.553Z,0.97
2018-04-30T06:44:38.057Z,1.00
2018-04-30T06:47:05.538Z,0.80
2018-04-30T06:49:33.100Z,1.20
2018-04-30T06:52:01.061Z,1.07
2018-04-30T06:54:28.671Z,0.90
2018-04-30T06:56:57.120Z,1.10
2018-04-30T06:59:24.643Z,1.20
2018-04-30T07:01:52.125Z,1.60
2018-04-30T07:04:20.374Z,0.80
2018-04-30T07:06:48.504Z,0.90
2018-04-30T07:09:16.130Z,1.07
2018-04-30T07:11:43.608Z,1.00
2018-04-30T07:14:11.093Z,1.20
2018-04-30T07:16:38.811Z,0.87
2018-04-30T07:19:06.321Z,1.10
2018-04-30T07:21:33.795Z,1.17
2018-04-30T07:24:01.257Z,0.90
2018-04-30T07:26:28.732Z,0.90
2018-04-30T07:29:00.476Z,1.10
2018-04-30T07:31:28.539Z,1.00
2018-04-30T07:33:56.588Z,0.93
2018-04-30T07:36:24.047Z,0.83
2018-04-30T07:38:51.562Z,0.87
2018-04-30T07:41:20.452Z,1.10
2018-04-30T07:43:47.982Z,1.00
2018-04-30T07:46:15.481Z,0.70
2018-04-30T07:48:42.985Z,1.00
2018-04-30T07:51:10.463Z,1.00
2018-04-30T07:53:38.318Z,1.00
2018-04-30T07:56:05.808Z,1.00
2018-04-30T07:58:33.289Z,0.80
2018-04-30T08:01:00.731Z,1.20
2018-04-30T08:03:28.961Z,1.10
2018-04-30T08:05:56.463Z,0.90
2018-04-30T08:08:24.731Z,1.00
2018-04-30T08:10:52.223Z,1.10
2018-04-30T08:13:19.721Z,0.93
2018-04-30T08:15:47.241Z,0.80
2018-04-30T08:18:14.712Z,0.97
2018-04-30T08:20:42.336Z,1.00
2018-04-30T08:23:09.940Z,0.90
2018-04-30T08:25:38.580Z,0.90
2018-04-30T08:28:07.050Z,0.80
2018-04-30T08:30:34.508Z,1.10
2018-04-30T08:33:01.952Z,0.87
2018-04-30T08:35:29.821Z,1.00
2018-04-30T08:37:57.309Z,0.70
2018-04-30T08:40:25.560Z,0.90
2018-04-30T08:42:53.006Z,0.90
2018-04-30T08:45:20.495Z,0.80
2018-04-30T08:47:47.991Z,0.80
2018-04-30T08:50:15.591Z,0.93
2018-04-30T08:52:47.149Z,0.70
2018-04-30T08:55:14.634Z,1.00
2018-04-30T08:57:42.111Z,1.67
2018-04-30T09:00:09.596Z,0.90
2018-04-30T09:02:38.799Z,0.80
2018-04-30T09:05:07.858Z,0.90
2018-04-30T09:07:35.524Z,0.83
2018-04-30T09:10:03.320Z,0.70
2018-04-30T09:12:31.508Z,0.80
2018-04-30T09:14:59.085Z,1.00
2018-04-30T09:17:26.502Z,1.10
2018-04-30T09:19:54.057Z,0.80
2018-04-30T09:22:21.548Z,0.80
2018-04-30T09:24:50.140Z,0.93
2018-04-30T09:27:18.825Z,1.00
2018-04-30T09:29:46.364Z,0.97
2018-04-30T09:32:14.805Z,0.70
2018-04-30T09:34:42.434Z,0.90
2018-04-30T09:37:09.966Z,0.90
2018-04-30T09:39:37.442Z,1.00
2018-04-30T09:42:04.967Z,0.90
2018-04-30T09:44:32.753Z,0.80
2018-04-30T09:47:00.258Z,0.90
2018-04-30T09:49:28.350Z,0.90
2018-04-30T09:51:56.538Z,0.97
2018-04-30T09:54:24.147Z,1.17
2018-04-30T09:56:51.977Z,1.00
2018-04-30T09:59:20.493Z,1.00
2018-04-30T10:01:48.021Z,1.00
2018-04-30T10:04:15.736Z,0.83
2018-04-30T10:06:43.768Z,0.77
2018-04-30T10:09:12.956Z,1.00
2018-04-30T10:11:41.311Z,0.80
2018-04-30T10:14:08.777Z,0.80
2018-04-30T10:16:36.563Z,0.83
2018-04-30T10:19:04.842Z,1.10
2018-04-30T10:21:32.319Z,0.60
2018-04-30T10:23:59.812Z,0.80
2018-04-30T10:26:27.300Z,0.87
2018-04-30T10:28:55.808Z,0.80
2018-04-30T10:31:23.266Z,0.83
2018-04-30T10:33:50.887Z,1.00
2018-04-30T10:36:18.372Z,0.90
2018-04-30T10:38:46.970Z,0.90
2018-04-30T10:41:14.474Z,0.80
2018-04-30T10:43:42.094Z,1.20
2018-04-30T10:46:09.578Z,0.80
2018-04-30T10:48:37.067Z,1.00
2018-04-30T10:51:05.511Z,1.00
2018-04-30T10:53:32.991Z,1.00
2018-04-30T10:56:01.136Z,0.70
2018-04-30T10:58:28.616Z,0.80
2018-04-30T11:00:56.259Z,0.87
2018-04-30T11:03:24.684Z,1.00
2018-04-30T11:05:52.295Z,1.03
2018-04-30T11:08:19.871Z,0.80
2018-04-30T11:10:47.367Z,0.80
2018-04-30T11:13:15.246Z,0.93
2018-04-30T11:15:43.192Z,1.00
2018-04-30T11:18:11.185Z,1.10
2018-04-30T11:20:39.114Z,0.80
2018-04-30T11:23:06.604Z,1.10
2018-04-30T11:25:34.121Z,0.93
2018-04-30T11:28:02.293Z,0.80
2018-04-30T11:30:29.804Z,0.80
2018-04-30T11:32:57.841Z,0.90
2018-04-30T11:35:25.421Z,0.70
2018-04-30T11:37:52.866Z,1.00
2018-04-30T11:40:20.458Z,1.10
2018-04-30T11:42:49.242Z,1.00
2018-04-30T11:45:16.731Z,0.90
2018-04-30T11:47:45.119Z,0.93
2018-04-30T11:50:13.831Z,0.83
2018-04-30T11:52:41.328Z,1.00
2018-04-30T11:55:09.209Z,0.70
2018-04-30T11:57:37.528Z,0.90
2018-04-30T12:00:05.328Z,1.00
2018-04-30T12:02:32.885Z,1.10
2018-04-30T12:05:00.998Z,1.20
2018-04-30T12:07:29.808Z,0.90
2018-04-30T12:09:57.583Z,1.10
2018-04-30T12:12:25.063Z,1.17
2018-04-30T12:14:52.500Z,0.83
2018-04-30T12:17:20.912Z,1.00
2018-04-30T12:19:48.380Z,1.10
2018-04-30T12:22:16.710Z,1.27
2018-04-30T12:24:44.146Z,1.00
2018-04-30T12:27:11.637Z,0.90
2018-04-30T12:29:39.860Z,1.27
2018-04-30T12:32:10.208Z,1.80
2018-04-30T12:34:37.691Z,1.17
2018-04-30T12:37:05.163Z,1.10
2018-04-30T12:39:32.702Z,1.20
2018-04-30T12:42:00.208Z,1.20
2018-04-30T12:44:30.243Z,1.10
2018-04-30T12:46:59.490Z,1.03
2018-04-30T12:49:32.805Z,1.10
2018-04-30T12:52:02.802Z,1.10
2018-04-30T12:54:32.360Z,1.20
2018-04-30T12:57:02.142Z,1.20
2018-04-30T12:59:31.230Z,1.20
2018-04-30T13:02:00.409Z,1.00
2018-04-30T13:04:30.093Z,1.10
2018-04-30T13:07:01.468Z,1.00
2018-04-30T13:09:33.538Z,1.10
2018-04-30T13:12:03.314Z,0.90
2018-04-30T13:14:34.941Z,0.97
2018-04-30T13:17:04.125Z,1.00
2018-04-30T13:19:34.925Z,1.13
2018-04-30T13:22:04.689Z,0.90
2018-04-30T13:24:33.732Z,0.97
2018-04-30T13:27:03.885Z,0.90
2018-04-30T13:29:33.343Z,1.00
2018-04-30T13:32:02.833Z,1.20
2018-04-30T13:34:32.219Z,0.93
2018-04-30T13:37:01.751Z,1.73
2018-04-30T13:39:30.936Z,0.90
2018-04-30T13:42:00.348Z,0.93
2018-04-30T13:44:29.943Z,0.97
2018-04-30T13:46:59.092Z,0.90
2018-04-30T13:49:26.566Z,0.97
2018-04-30T13:51:55.922Z,1.40
2018-04-30T13:54:25.163Z,0.80
2018-04-30T13:56:54.986Z,0.90
2018-04-30T13:59:23.977Z,0.90
2018-04-30T14:01:53.404Z,0.97
2018-04-30T14:04:22.810Z,1.00
2018-04-30T14:06:52.171Z,0.80
2018-04-30T14:09:22.183Z,0.90
2018-04-30T14:11:55.442Z,1.03
2018-04-30T14:14:24.726Z,0.90
2018-04-30T14:16:54.139Z,0.80
2018-04-30T14:19:23.631Z,0.90
2018-04-30T14:21:52.848Z,1.20
2018-04-30T14:24:22.133Z,1.00
2018-04-30T14:26:55.707Z,0.90
2018-04-30T14:29:25.040Z,1.03
2018-04-30T14:31:54.029Z,1.10
2018-04-30T14:34:23.535Z,1.27
2018-04-30T14:36:52.784Z,1.13
2018-04-30T14:39:21.552Z,1.00
2018-04-30T14:41:51.771Z,1.10
2018-04-30T14:44:21.404Z,0.90
2018-04-30T14:46:51.799Z,1.10
2018-04-30T14:49:21.347Z,1.10
2018-04-30T14:51:50.866Z,0.90
2018-04-30T14:54:19.985Z,0.90
2018-04-30T14:56:51.249Z,0.97
2018-04-30T14:59:21.078Z,0.90
2018-04-30T15:01:48.942Z,1.30
2018-04-30T15:04:19.055Z,1.00
2018-04-30T15:06:48.222Z,1.00
2018-04-30T15:09:18.426Z,1.23
2018-04-30T16:07:23.761Z,1.27
2018-04-30T16:09:52.842Z,1.30
2018-04-30T16:12:22.308Z,1.27
2018-04-30T16:14:51.853Z,1.30
2018-04-30T16:17:21.293Z,1.00
2018-04-30T16:19:50.674Z,1.30
2018-04-30T16:22:19.991Z,1.23
2018-04-30T16:24:49.584Z,1.60
2018-04-30T16:27:21.926Z,1.30
2018-04-30T16:29:55.294Z,1.33
2018-04-30T16:32:29.156Z,1.03
2018-04-30T16:34:58.092Z,1.37
2018-04-30T16:37:27.193Z,1.40
2018-04-30T16:39:56.177Z,1.40
2018-04-30T16:42:23.725Z,1.53
2018-04-30T16:44:53.002Z,1.30
2018-04-30T16:47:24.752Z,1.20
2018-04-30T16:49:57.639Z,1.50
2018-04-30T16:52:33.137Z,3.23
2018-04-30T16:55:03.202Z,2.93
2018-04-30T16:57:32.900Z,2.63
2018-04-30T17:00:02.027Z,1.60
2018-04-30T17:02:38.884Z,1.70
2018-04-30T17:05:10.579Z,1.43
2018-04-30T17:07:44.805Z,1.33
2018-04-30T17:10:15.850Z,3.10
2018-04-30T17:12:54.668Z,3.30
2018-04-30T17:15:23.614Z,2.20
2018-04-30T17:17:54.492Z,1.60
2018-04-30T17:20:24.194Z,1.60
2018-04-30T17:22:57.333Z,1.13
2018-04-30T17:25:26.114Z,1.40
2018-04-30T17:27:59.911Z,1.57
2018-04-30T17:30:29.312Z,1.23
2018-04-30T17:32:59.804Z,1.60
2018-04-30T17:35:39.336Z,1.70
2018-04-30T17:38:13.618Z,1.43
2018-04-30T17:40:46.240Z,1.77
2018-04-30T17:43:20.542Z,1.60
2018-04-30T17:49:35.909Z,1.33
2018-04-30T17:52:08.936Z,1.57
2018-04-30T17:54:47.550Z,1.50
2018-04-30T17:57:19.373Z,1.90
2018-04-30T17:59:50.033Z,1.50
2018-04-30T18:02:27.210Z,1.43
2018-04-30T18:04:55.471Z,1.30
2018-04-30T18:07:25.168Z,1.50
2018-04-30T18:09:58.844Z,2.13
2018-04-30T18:12:27.812Z,1.97
2018-04-30T18:14:57.188Z,1.60
2018-04-30T18:17:30.127Z,1.40
2018-04-30T18:19:59.157Z,1.67
2018-04-30T18:22:32.329Z,1.70
2018-04-30T18:25:01.747Z,1.30
2018-04-30T18:27:29.710Z,1.50
2018-04-30T18:29:59.233Z,1.30
2018-04-30T18:32:28.186Z,1.47
2018-04-30T18:34:56.748Z,1.43
2018-04-30T18:37:25.702Z,1.70
2018-04-30T18:39:55.214Z,1.60
2018-04-30T18:42:24.924Z,1.70
2018-04-30T18:44:53.895Z,1.97
2018-04-30T18:47:22.441Z,1.60
2018-04-30T18:49:54.849Z,1.50
2018-04-30T18:52:24.032Z,1.80
2018-04-30T18:54:52.940Z,1.57
2018-04-30T18:57:21.525Z,1.60
2018-04-30T18:59:51.453Z,1.70
2018-04-30T19:02:20.178Z,1.53
2018-04-30T19:05:01.138Z,2.13
2018-04-30T19:07:31.696Z,1.57
2018-04-30T19:10:01.708Z,2.17
2018-04-30T19:12:30.820Z,2.30
2018-04-30T19:14:59.710Z,2.50
2018-04-30T19:17:33.795Z,2.27
2018-04-30T19:20:02.652Z,2.70
2018-04-30T19:22:32.129Z,2.00
2018-04-30T19:25:01.417Z,1.80
2018-04-30T19:27:30.677Z,1.73
2018-04-30T19:29:58.174Z,1.60
2018-04-30T19:32:27.603Z,1.30
2018-04-30T19:34:56.811Z,1.33
2018-04-30T19:37:26.234Z,1.67
2018-04-30T19:39:55.816Z,1.60
2018-04-30T19:42:25.381Z,1.43
2018-04-30T19:44:56.621Z,1.23
2018-04-30T19:47:26.236Z,1.43
2018-04-30T19:49:55.657Z,1.70
2018-04-30T19:52:25.526Z,1.43
2018-04-30T19:54:54.803Z,1.30
2018-04-30T19:57:22.871Z,1.30
2018-04-30T19:59:52.177Z,1.57
2018-04-30T20:02:25.599Z,1.40
2018-04-30T20:04:54.890Z,1.20
2018-04-30T20:07:24.644Z,1.43
2018-04-30T20:09:55.042Z,1.40
2018-04-30T20:12:24.741Z,1.40
2018-04-30T20:14:53.881Z,1.30
2018-04-30T20:17:23.933Z,1.20
2018-04-30T20:19:55.816Z,1.23
2018-04-30T20:22:23.292Z,1.20
2018-04-30T20:24:52.956Z,1.93
2018-04-30T20:27:24.383Z,1.40
2018-04-30T20:30:01.819Z,1.47
2018-04-30T20:32:32.195Z,1.00
2018-04-30T20:35:03.885Z,1.20
2018-04-30T20:37:31.441Z,1.40
2018-04-30T20:40:01.255Z,1.47
2018-04-30T20:45:02.427Z,1.53
2018-04-30T20:47:32.459Z,1.33
2018-04-30T20:50:03.470Z,1.40
2018-04-30T20:52:34.968Z,1.40
2018-04-30T20:55:04.212Z,1.30
2018-04-30T20:57:33.216Z,1.27
2018-04-30T21:00:03.780Z,1.67
2018-04-30T21:02:33.609Z,1.20
2018-04-30T21:05:03.213Z,1.30
2018-04-30T21:07:31.576Z,1.20
2018-04-30T21:10:02.421Z,1.20
2018-04-30T21:12:31.409Z,1.10
2018-04-30T21:15:00.643Z,1.27
2018-04-30T21:17:30.450Z,1.13
2018-04-30T21:20:00.430Z,1.10
2018-04-30T21:22:29.886Z,1.23
2018-04-30T21:24:59.434Z,1.10
2018-04-30T21:27:29.674Z,1.20
2018-04-30T21:29:59.447Z,1.10
2018-04-30T21:32:29.422Z,1.10
2018-04-30T21:34:59.960Z,1.30
2018-04-30T21:37:29.344Z,1.20
2018-04-30T21:39:58.581Z,1.20
2018-04-30T21:42:28.074Z,1.13
2018-04-30T21:44:57.261Z,1.17
2018-04-30T21:47:26.457Z,0.90
2018-04-30T21:49:56.851Z,1.30
2018-04-30T21:52:26.592Z,1.23
2018-04-30T21:54:55.591Z,1.20
2018-04-30T21:57:24.488Z,1.20
2018-04-30T21:59:54.032Z,1.13
2018-04-30T22:02:23.647Z,1.10
2018-04-30T22:04:53.129Z,1.20
2018-04-30T22:07:20.805Z,1.27
2018-04-30T22:09:50.002Z,1.33
2018-04-30T22:12:19.341Z,1.37
2018-04-30T22:14:48.428Z,1.40
2018-04-30T22:17:17.519Z,1.40
2018-04-30T22:19:46.768Z,1.20
2018-04-30T22:22:16.158Z,1.30
2018-04-30T22:24:46.609Z,1.40
2018-04-30T22:27:19.917Z,1.23
2018-04-30T22:29:49.513Z,1.40
2018-04-30T22:32:18.632Z,1.20
2018-04-30T22:34:48.652Z,1.40
2018-04-30T22:37:19.143Z,1.40
2018-04-30T22:39:48.268Z,1.80
2018-04-30T22:42:21.877Z,1.43
2018-04-30T22:44:55.520Z,1.60
2018-04-30T22:47:25.298Z,1.60
2018-04-30T22:49:54.590Z,1.67
2018-04-30T22:52:25.840Z,1.53
2018-04-30T22:54:55.501Z,1.57
2018-04-30T22:57:25.036Z,1.53
2018-04-30T22:59:53.700Z,1.60
2018-04-30T23:02:23.189Z,1.40
2018-04-30T23:04:52.966Z,1.70
2018-04-30T23:07:22.309Z,1.50
2018-04-30T23:09:50.927Z,1.40
2018-04-30T23:12:20.296Z,1.40
2018-04-30T23:14:49.216Z,1.20
2018-04-30T23:17:18.834Z,1.53
2018-04-30T23:19:48.539Z,1.50
2018-04-30T23:22:18.507Z,1.57
2018-04-30T23:24:46.030Z,1.40
2018-04-30T23:27:17.157Z,1.50
2018-04-30T23:29:46.285Z,1.27
2018-04-30T23:32:16.626Z,1.30
2018-04-30T23:34:46.950Z,1.30
2018-04-30T23:37:19.111Z,1.50
2018-04-30T23:39:48.405Z,1.67
2018-04-30T23:42:18.031Z,1.53
2018-04-30T23:44:59.623Z,1.30
2018-04-30T23:47:29.016Z,1.30
2018-04-30T23:49:58.591Z,1.43
2018-04-30T23:52:28.237Z,1.30
2018-04-30T23:54:58.269Z,1.27
2018-04-30T23:57:27.962Z,1.20
2018-04-30T23:59:56.823Z,1.10
